sensor_id;sensor_type;location;lat;lon;timestamp;P1;durP1;ratioP1;P2;durP2;ratioP2
65009;SDS011;51556;50.002;22.014;2023-12-29T00:00:26;11.50;;;7.80;;
65009;SDS011;51556;50.002;22.014;2023-12-29T00:02:51;11.80;;;8.00;;
65009;SDS011;51556;50.002;22.014;2023-12-29T00:05:16;15.20;;;7.60;;
65009;SDS011;51556;50.002;22.014;2023-12-29T00:07:42;12.70;;;8.00;;
65009;SDS011;51556;50.002;22.014;2023-12-29T00:10:07;13.90;;;7.50;;
65009;SDS011;51556;50.002;22.014;2023-12-29T00:12:33;13.60;;;7.70;;
65009;SDS011;51556;50.002;22.014;2023-12-29T00:14:59;11.90;;;7.30;;
65009;SDS011;51556;50.002;22.014;2023-12-29T00:17:25;10.60;;;8.00;;
65009;SDS011;51556;50.002;22.014;2023-12-29T00:19:50;12.30;;;7.40;;
65009;SDS011;51556;50.002;22.014;2023-12-29T00:22:15;12.00;;;7.80;;
65009;SDS011;51556;50.002;22.014;2023-12-29T00:24:41;12.10;;;7.80;;
65009;SDS011;51556;50.002;22.014;2023-12-29T00:27:06;11.40;;;7.40;;
65009;SDS011;51556;50.002;22.014;2023-12-29T00:29:32;8.90;;;6.50;;
65009;SDS011;51556;50.002;22.014;2023-12-29T00:31:58;13.80;;;8.00;;
65009;SDS011;51556;50.002;22.014;2023-12-29T00:34:25;11.40;;;7.60;;
65009;SDS011;51556;50.002;22.014;2023-12-29T00:36:51;12.80;;;8.00;;
65009;SDS011;51556;50.002;22.014;2023-12-29T00:39:17;10.90;;;6.90;;
65009;SDS011;51556;50.002;22.014;2023-12-29T00:41:42;13.70;;;7.70;;
65009;SDS011;51556;50.002;22.014;2023-12-29T00:44:07;14.90;;;7.50;;
65009;SDS011;51556;50.002;22.014;2023-12-29T00:46:33;11.50;;;7.20;;
65009;SDS011;51556;50.002;22.014;2023-12-29T00:48:59;14.90;;;8.80;;
65009;SDS011;51556;50.002;22.014;2023-12-29T00:51:24;12.90;;;7.40;;
65009;SDS011;51556;50.002;22.014;2023-12-29T00:53:50;12.90;;;7.70;;
65009;SDS011;51556;50.002;22.014;2023-12-29T00:56:15;11.60;;;6.80;;
65009;SDS011;51556;50.002;22.014;2023-12-29T00:58:40;11.40;;;7.50;;
65009;SDS011;51556;50.002;22.014;2023-12-29T01:01:07;12.30;;;7.80;;
65009;SDS011;51556;50.002;22.014;2023-12-29T01:03:34;12.30;;;7.50;;
65009;SDS011;51556;50.002;22.014;2023-12-29T01:06:00;11.40;;;6.60;;
65009;SDS011;51556;50.002;22.014;2023-12-29T01:08:25;13.50;;;7.90;;
65009;SDS011;51556;50.002;22.014;2023-12-29T01:10:51;10.80;;;7.20;;
65009;SDS011;51556;50.002;22.014;2023-12-29T01:13:16;13.30;;;7.10;;
65009;SDS011;51556;50.002;22.014;2023-12-29T01:15:42;14.50;;;8.50;;
65009;SDS011;51556;50.002;22.014;2023-12-29T01:18:10;11.30;;;7.40;;
65009;SDS011;51556;50.002;22.014;2023-12-29T01:20:37;12.80;;;7.00;;
65009;SDS011;51556;50.002;22.014;2023-12-29T01:23:04;14.80;;;8.00;;
65009;SDS011;51556;50.002;22.014;2023-12-29T01:25:29;15.40;;;8.00;;
65009;SDS011;51556;50.002;22.014;2023-12-29T01:27:55;14.20;;;8.40;;
65009;SDS011;51556;50.002;22.014;2023-12-29T01:30:20;11.60;;;7.30;;
65009;SDS011;51556;50.002;22.014;2023-12-29T01:32:45;13.30;;;7.50;;
65009;SDS011;51556;50.002;22.014;2023-12-29T01:35:11;13.60;;;7.80;;
65009;SDS011;51556;50.002;22.014;2023-12-29T01:37:36;12.80;;;6.90;;
65009;SDS011;51556;50.002;22.014;2023-12-29T01:40:02;10.20;;;6.60;;
65009;SDS011;51556;50.002;22.014;2023-12-29T01:42:27;11.20;;;7.60;;
65009;SDS011;51556;50.002;22.014;2023-12-29T01:44:53;13.80;;;8.00;;
65009;SDS011;51556;50.002;22.014;2023-12-29T01:47:19;13.10;;;7.20;;
65009;SDS011;51556;50.002;22.014;2023-12-29T01:49:47;13.70;;;8.10;;
65009;SDS011;51556;50.002;22.014;2023-12-29T01:52:14;11.10;;;6.70;;
65009;SDS011;51556;50.002;22.014;2023-12-29T01:54:42;13.60;;;7.50;;
65009;SDS011;51556;50.002;22.014;2023-12-29T01:57:09;13.20;;;7.90;;
65009;SDS011;51556;50.002;22.014;2023-12-29T01:59:36;12.20;;;7.80;;
65009;SDS011;51556;50.002;22.014;2023-12-29T02:02:03;15.00;;;7.90;;
65009;SDS011;51556;50.002;22.014;2023-12-29T02:04:29;11.80;;;7.50;;
65009;SDS011;51556;50.002;22.014;2023-12-29T02:06:56;9.70;;;6.60;;
65009;SDS011;51556;50.002;22.014;2023-12-29T02:09:22;9.60;;;6.20;;
65009;SDS011;51556;50.002;22.014;2023-12-29T02:11:47;9.60;;;6.40;;
65009;SDS011;51556;50.002;22.014;2023-12-29T02:14:17;9.70;;;6.60;;
65009;SDS011;51556;50.002;22.014;2023-12-29T02:19:24;9.90;;;6.10;;
65009;SDS011;51556;50.002;22.014;2023-12-29T02:21:59;12.70;;;6.20;;
65009;SDS011;51556;50.002;22.014;2023-12-29T02:24:24;13.40;;;7.30;;
65009;SDS011;51556;50.002;22.014;2023-12-29T02:26:50;10.10;;;6.90;;
65009;SDS011;51556;50.002;22.014;2023-12-29T02:29:23;13.30;;;7.20;;
65009;SDS011;51556;50.002;22.014;2023-12-29T02:31:50;13.50;;;7.40;;
65009;SDS011;51556;50.002;22.014;2023-12-29T02:34:20;11.40;;;7.50;;
65009;SDS011;51556;50.002;22.014;2023-12-29T02:36:48;11.30;;;6.90;;
65009;SDS011;51556;50.002;22.014;2023-12-29T02:39:16;10.60;;;6.70;;
65009;SDS011;51556;50.002;22.014;2023-12-29T02:41:42;9.40;;;6.70;;
65009;SDS011;51556;50.002;22.014;2023-12-29T02:44:08;11.50;;;6.90;;
65009;SDS011;51556;50.002;22.014;2023-12-29T02:46:33;10.40;;;6.90;;
65009;SDS011;51556;50.002;22.014;2023-12-29T02:48:59;9.80;;;6.60;;
65009;SDS011;51556;50.002;22.014;2023-12-29T02:51:24;14.70;;;7.60;;
65009;SDS011;51556;50.002;22.014;2023-12-29T02:53:50;10.80;;;6.80;;
65009;SDS011;51556;50.002;22.014;2023-12-29T02:56:15;9.00;;;6.60;;
65009;SDS011;51556;50.002;22.014;2023-12-29T02:58:40;9.00;;;6.30;;
65009;SDS011;51556;50.002;22.014;2023-12-29T03:01:06;13.00;;;7.60;;
65009;SDS011;51556;50.002;22.014;2023-12-29T03:03:31;12.20;;;8.10;;
65009;SDS011;51556;50.002;22.014;2023-12-29T03:05:57;10.00;;;7.60;;
65009;SDS011;51556;50.002;22.014;2023-12-29T03:08:22;11.70;;;7.60;;
65009;SDS011;51556;50.002;22.014;2023-12-29T03:10:48;13.10;;;8.00;;
65009;SDS011;51556;50.002;22.014;2023-12-29T03:13:13;10.80;;;7.10;;
65009;SDS011;51556;50.002;22.014;2023-12-29T03:15:38;11.70;;;8.30;;
65009;SDS011;51556;50.002;22.014;2023-12-29T03:18:04;15.20;;;8.60;;
65009;SDS011;51556;50.002;22.014;2023-12-29T03:20:29;10.60;;;7.70;;
65009;SDS011;51556;50.002;22.014;2023-12-29T03:22:55;12.30;;;7.50;;
65009;SDS011;51556;50.002;22.014;2023-12-29T03:25:20;13.00;;;8.10;;
65009;SDS011;51556;50.002;22.014;2023-12-29T03:27:46;13.10;;;8.20;;
65009;SDS011;51556;50.002;22.014;2023-12-29T03:30:11;12.30;;;8.40;;
65009;SDS011;51556;50.002;22.014;2023-12-29T03:32:37;16.00;;;9.40;;
65009;SDS011;51556;50.002;22.014;2023-12-29T03:35:02;13.70;;;8.40;;
65009;SDS011;51556;50.002;22.014;2023-12-29T03:37:29;12.50;;;7.00;;
65009;SDS011;51556;50.002;22.014;2023-12-29T03:39:54;13.20;;;8.70;;
65009;SDS011;51556;50.002;22.014;2023-12-29T03:42:19;13.10;;;8.00;;
65009;SDS011;51556;50.002;22.014;2023-12-29T03:44:45;14.40;;;9.00;;
65009;SDS011;51556;50.002;22.014;2023-12-29T03:47:10;15.70;;;9.80;;
65009;SDS011;51556;50.002;22.014;2023-12-29T03:49:36;16.40;;;10.40;;
65009;SDS011;51556;50.002;22.014;2023-12-29T03:52:01;15.30;;;8.90;;
65009;SDS011;51556;50.002;22.014;2023-12-29T03:54:27;18.50;;;10.40;;
65009;SDS011;51556;50.002;22.014;2023-12-29T03:56:52;14.30;;;8.30;;
65009;SDS011;51556;50.002;22.014;2023-12-29T03:59:17;15.50;;;9.10;;
65009;SDS011;51556;50.002;22.014;2023-12-29T04:01:43;15.90;;;9.10;;
65009;SDS011;51556;50.002;22.014;2023-12-29T04:04:09;15.00;;;9.40;;
65009;SDS011;51556;50.002;22.014;2023-12-29T04:06:34;15.00;;;9.70;;
65009;SDS011;51556;50.002;22.014;2023-12-29T04:08:59;13.70;;;8.90;;
65009;SDS011;51556;50.002;22.014;2023-12-29T04:11:25;15.20;;;9.40;;
65009;SDS011;51556;50.002;22.014;2023-12-29T04:13:50;15.50;;;9.90;;
65009;SDS011;51556;50.002;22.014;2023-12-29T04:16:16;15.80;;;10.10;;
65009;SDS011;51556;50.002;22.014;2023-12-29T04:18:43;16.70;;;10.20;;
65009;SDS011;51556;50.002;22.014;2023-12-29T04:21:12;16.10;;;8.30;;
65009;SDS011;51556;50.002;22.014;2023-12-29T04:23:38;18.50;;;10.70;;
65009;SDS011;51556;50.002;22.014;2023-12-29T04:26:06;17.30;;;10.50;;
65009;SDS011;51556;50.002;22.014;2023-12-29T04:28:32;17.30;;;9.90;;
65009;SDS011;51556;50.002;22.014;2023-12-29T04:30:58;13.00;;;8.10;;
65009;SDS011;51556;50.002;22.014;2023-12-29T04:33:23;15.60;;;9.70;;
65009;SDS011;51556;50.002;22.014;2023-12-29T04:35:48;17.60;;;10.20;;
65009;SDS011;51556;50.002;22.014;2023-12-29T04:38:14;18.50;;;10.10;;
65009;SDS011;51556;50.002;22.014;2023-12-29T04:40:42;15.50;;;9.40;;
65009;SDS011;51556;50.002;22.014;2023-12-29T04:43:08;17.50;;;9.10;;
65009;SDS011;51556;50.002;22.014;2023-12-29T04:45:33;17.20;;;9.50;;
65009;SDS011;51556;50.002;22.014;2023-12-29T04:47:58;16.30;;;9.00;;
65009;SDS011;51556;50.002;22.014;2023-12-29T04:50:24;15.50;;;8.60;;
65009;SDS011;51556;50.002;22.014;2023-12-29T04:52:49;16.60;;;9.10;;
65009;SDS011;51556;50.002;22.014;2023-12-29T04:55:15;15.50;;;9.90;;
65009;SDS011;51556;50.002;22.014;2023-12-29T04:57:40;15.60;;;9.00;;
65009;SDS011;51556;50.002;22.014;2023-12-29T05:00:06;15.10;;;8.60;;
65009;SDS011;51556;50.002;22.014;2023-12-29T05:02:32;15.40;;;9.40;;
65009;SDS011;51556;50.002;22.014;2023-12-29T05:04:57;18.30;;;9.90;;
65009;SDS011;51556;50.002;22.014;2023-12-29T05:07:23;14.60;;;8.30;;
65009;SDS011;51556;50.002;22.014;2023-12-29T05:09:49;16.90;;;10.10;;
65009;SDS011;51556;50.002;22.014;2023-12-29T05:12:15;16.60;;;9.50;;
65009;SDS011;51556;50.002;22.014;2023-12-29T05:14:40;16.80;;;9.00;;
65009;SDS011;51556;50.002;22.014;2023-12-29T05:17:05;17.40;;;11.00;;
65009;SDS011;51556;50.002;22.014;2023-12-29T05:19:31;18.90;;;10.40;;
65009;SDS011;51556;50.002;22.014;2023-12-29T05:21:57;14.90;;;8.30;;
65009;SDS011;51556;50.002;22.014;2023-12-29T05:24:22;12.50;;;7.70;;
65009;SDS011;51556;50.002;22.014;2023-12-29T05:26:48;16.00;;;10.20;;
65009;SDS011;51556;50.002;22.014;2023-12-29T05:29:13;14.20;;;9.10;;
65009;SDS011;51556;50.002;22.014;2023-12-29T05:31:39;15.80;;;9.50;;
65009;SDS011;51556;50.002;22.014;2023-12-29T05:34:04;13.70;;;7.80;;
65009;SDS011;51556;50.002;22.014;2023-12-29T05:36:30;14.00;;;9.20;;
65009;SDS011;51556;50.002;22.014;2023-12-29T05:38:55;12.90;;;8.00;;
65009;SDS011;51556;50.002;22.014;2023-12-29T05:41:20;13.90;;;9.00;;
65009;SDS011;51556;50.002;22.014;2023-12-29T05:43:46;20.10;;;10.50;;
65009;SDS011;51556;50.002;22.014;2023-12-29T05:46:12;17.70;;;9.80;;
65009;SDS011;51556;50.002;22.014;2023-12-29T05:48:38;16.90;;;9.70;;
65009;SDS011;51556;50.002;22.014;2023-12-29T05:51:08;15.90;;;9.90;;
65009;SDS011;51556;50.002;22.014;2023-12-29T05:53:34;16.80;;;9.80;;
65009;SDS011;51556;50.002;22.014;2023-12-29T05:56:00;15.20;;;9.70;;
65009;SDS011;51556;50.002;22.014;2023-12-29T05:58:25;19.50;;;10.10;;
65009;SDS011;51556;50.002;22.014;2023-12-29T06:00:51;18.10;;;10.70;;
65009;SDS011;51556;50.002;22.014;2023-12-29T06:03:16;18.30;;;11.70;;
65009;SDS011;51556;50.002;22.014;2023-12-29T06:05:42;22.50;;;12.60;;
65009;SDS011;51556;50.002;22.014;2023-12-29T06:08:07;18.00;;;11.10;;
65009;SDS011;51556;50.002;22.014;2023-12-29T06:10:33;19.90;;;11.20;;
65009;SDS011;51556;50.002;22.014;2023-12-29T06:13:01;18.10;;;10.70;;
65009;SDS011;51556;50.002;22.014;2023-12-29T06:15:27;21.30;;;11.90;;
65009;SDS011;51556;50.002;22.014;2023-12-29T06:17:53;18.20;;;10.90;;
65009;SDS011;51556;50.002;22.014;2023-12-29T06:20:18;19.50;;;12.00;;
65009;SDS011;51556;50.002;22.014;2023-12-29T06:22:45;20.50;;;11.60;;
65009;SDS011;51556;50.002;22.014;2023-12-29T06:25:11;22.00;;;12.10;;
65009;SDS011;51556;50.002;22.014;2023-12-29T06:27:37;19.20;;;11.70;;
65009;SDS011;51556;50.002;22.014;2023-12-29T06:30:07;22.50;;;13.00;;
65009;SDS011;51556;50.002;22.014;2023-12-29T06:32:33;22.10;;;12.50;;
65009;SDS011;51556;50.002;22.014;2023-12-29T06:34:59;22.40;;;12.80;;
65009;SDS011;51556;50.002;22.014;2023-12-29T06:37:24;17.90;;;11.30;;
65009;SDS011;51556;50.002;22.014;2023-12-29T06:39:50;19.70;;;10.40;;
65009;SDS011;51556;50.002;22.014;2023-12-29T06:42:15;20.80;;;12.60;;
65009;SDS011;51556;50.002;22.014;2023-12-29T06:44:41;22.40;;;12.20;;
65009;SDS011;51556;50.002;22.014;2023-12-29T06:47:06;18.40;;;11.30;;
65009;SDS011;51556;50.002;22.014;2023-12-29T06:49:32;20.50;;;11.80;;
65009;SDS011;51556;50.002;22.014;2023-12-29T06:51:59;19.70;;;10.70;;
65009;SDS011;51556;50.002;22.014;2023-12-29T06:54:25;18.20;;;11.20;;
65009;SDS011;51556;50.002;22.014;2023-12-29T06:56:50;21.70;;;12.10;;
65009;SDS011;51556;50.002;22.014;2023-12-29T06:59:16;21.00;;;11.90;;
65009;SDS011;51556;50.002;22.014;2023-12-29T07:01:43;20.90;;;12.10;;
65009;SDS011;51556;50.002;22.014;2023-12-29T07:04:09;21.80;;;11.90;;
65009;SDS011;51556;50.002;22.014;2023-12-29T07:06:38;20.10;;;11.60;;
65009;SDS011;51556;50.002;22.014;2023-12-29T07:09:03;22.50;;;12.30;;
65009;SDS011;51556;50.002;22.014;2023-12-29T07:11:29;19.70;;;11.50;;
65009;SDS011;51556;50.002;22.014;2023-12-29T07:13:55;18.40;;;10.80;;
65009;SDS011;51556;50.002;22.014;2023-12-29T07:16:20;17.60;;;11.90;;
65009;SDS011;51556;50.002;22.014;2023-12-29T07:18:46;21.00;;;11.60;;
65009;SDS011;51556;50.002;22.014;2023-12-29T07:21:12;20.50;;;12.50;;
65009;SDS011;51556;50.002;22.014;2023-12-29T07:23:38;23.70;;;11.60;;
65009;SDS011;51556;50.002;22.014;2023-12-29T07:26:04;18.40;;;11.80;;
65009;SDS011;51556;50.002;22.014;2023-12-29T07:28:30;20.10;;;11.70;;
65009;SDS011;51556;50.002;22.014;2023-12-29T07:30:56;21.00;;;11.60;;
65009;SDS011;51556;50.002;22.014;2023-12-29T07:33:22;21.20;;;11.80;;
65009;SDS011;51556;50.002;22.014;2023-12-29T07:35:48;24.20;;;12.30;;
65009;SDS011;51556;50.002;22.014;2023-12-29T07:38:14;19.50;;;11.40;;
65009;SDS011;51556;50.002;22.014;2023-12-29T07:40:40;20.20;;;11.40;;
65009;SDS011;51556;50.002;22.014;2023-12-29T07:43:05;19.20;;;10.50;;
65009;SDS011;51556;50.002;22.014;2023-12-29T07:45:30;16.40;;;10.40;;
65009;SDS011;51556;50.002;22.014;2023-12-29T07:47:56;18.60;;;10.90;;
65009;SDS011;51556;50.002;22.014;2023-12-29T07:50:22;21.80;;;11.90;;
65009;SDS011;51556;50.002;22.014;2023-12-29T07:52:48;20.90;;;12.00;;
65009;SDS011;51556;50.002;22.014;2023-12-29T07:55:13;20.30;;;11.30;;
65009;SDS011;51556;50.002;22.014;2023-12-29T07:57:41;19.10;;;11.70;;
65009;SDS011;51556;50.002;22.014;2023-12-29T08:00:08;15.60;;;10.00;;
65009;SDS011;51556;50.002;22.014;2023-12-29T08:02:34;19.40;;;11.30;;
65009;SDS011;51556;50.002;22.014;2023-12-29T08:05:00;16.90;;;9.90;;
65009;SDS011;51556;50.002;22.014;2023-12-29T08:07:27;20.90;;;11.30;;
65009;SDS011;51556;50.002;22.014;2023-12-29T08:09:53;15.60;;;10.00;;
65009;SDS011;51556;50.002;22.014;2023-12-29T08:12:18;19.10;;;10.90;;
65009;SDS011;51556;50.002;22.014;2023-12-29T08:14:44;19.90;;;11.00;;
65009;SDS011;51556;50.002;22.014;2023-12-29T08:17:09;17.70;;;11.00;;
65009;SDS011;51556;50.002;22.014;2023-12-29T08:19:36;19.30;;;12.00;;
65009;SDS011;51556;50.002;22.014;2023-12-29T08:22:01;19.60;;;10.90;;
65009;SDS011;51556;50.002;22.014;2023-12-29T08:24:27;18.40;;;10.60;;
65009;SDS011;51556;50.002;22.014;2023-12-29T08:26:52;18.90;;;10.50;;
65009;SDS011;51556;50.002;22.014;2023-12-29T08:29:18;17.80;;;10.70;;
65009;SDS011;51556;50.002;22.014;2023-12-29T08:31:44;14.80;;;9.10;;
65009;SDS011;51556;50.002;22.014;2023-12-29T08:34:10;17.90;;;11.10;;
65009;SDS011;51556;50.002;22.014;2023-12-29T08:36:36;19.00;;;10.70;;
65009;SDS011;51556;50.002;22.014;2023-12-29T08:39:02;17.30;;;10.50;;
65009;SDS011;51556;50.002;22.014;2023-12-29T08:41:27;17.90;;;10.40;;
65009;SDS011;51556;50.002;22.014;2023-12-29T08:43:53;19.50;;;10.40;;
65009;SDS011;51556;50.002;22.014;2023-12-29T08:46:18;18.10;;;10.40;;
65009;SDS011;51556;50.002;22.014;2023-12-29T08:48:44;15.60;;;9.00;;
65009;SDS011;51556;50.002;22.014;2023-12-29T08:51:10;18.80;;;10.10;;
65009;SDS011;51556;50.002;22.014;2023-12-29T08:53:35;15.50;;;9.30;;
65009;SDS011;51556;50.002;22.014;2023-12-29T08:56:01;14.90;;;9.20;;
65009;SDS011;51556;50.002;22.014;2023-12-29T08:58:27;18.60;;;10.50;;
65009;SDS011;51556;50.002;22.014;2023-12-29T09:00:53;16.90;;;10.60;;
65009;SDS011;51556;50.002;22.014;2023-12-29T09:03:19;17.50;;;9.60;;
65009;SDS011;51556;50.002;22.014;2023-12-29T09:05:47;16.60;;;10.10;;
65009;SDS011;51556;50.002;22.014;2023-12-29T09:08:12;17.80;;;10.90;;
65009;SDS011;51556;50.002;22.014;2023-12-29T09:10:38;17.20;;;9.40;;
65009;SDS011;51556;50.002;22.014;2023-12-29T09:13:06;16.70;;;10.10;;
65009;SDS011;51556;50.002;22.014;2023-12-29T09:15:31;18.20;;;10.70;;
65009;SDS011;51556;50.002;22.014;2023-12-29T09:17:57;15.30;;;9.60;;
65009;SDS011;51556;50.002;22.014;2023-12-29T09:20:23;17.10;;;10.30;;
65009;SDS011;51556;50.002;22.014;2023-12-29T09:22:48;17.50;;;9.80;;
65009;SDS011;51556;50.002;22.014;2023-12-29T09:25:13;19.20;;;9.60;;
65009;SDS011;51556;50.002;22.014;2023-12-29T09:27:39;18.40;;;10.20;;
65009;SDS011;51556;50.002;22.014;2023-12-29T09:30:04;19.70;;;11.00;;
65009;SDS011;51556;50.002;22.014;2023-12-29T09:32:30;17.20;;;9.50;;
65009;SDS011;51556;50.002;22.014;2023-12-29T09:34:56;20.90;;;11.30;;
65009;SDS011;51556;50.002;22.014;2023-12-29T09:37:22;23.20;;;10.80;;
65009;SDS011;51556;50.002;22.014;2023-12-29T09:39:47;20.50;;;11.10;;
65009;SDS011;51556;50.002;22.014;2023-12-29T09:42:16;20.70;;;11.20;;
65009;SDS011;51556;50.002;22.014;2023-12-29T09:44:47;20.00;;;11.00;;
65009;SDS011;51556;50.002;22.014;2023-12-29T09:47:16;22.30;;;11.50;;
65009;SDS011;51556;50.002;22.014;2023-12-29T09:49:48;21.60;;;11.10;;
65009;SDS011;51556;50.002;22.014;2023-12-29T09:52:14;23.20;;;12.60;;
65009;SDS011;51556;50.002;22.014;2023-12-29T09:54:41;21.40;;;11.20;;
65009;SDS011;51556;50.002;22.014;2023-12-29T09:57:08;21.00;;;11.40;;
65009;SDS011;51556;50.002;22.014;2023-12-29T09:59:34;20.30;;;11.70;;
65009;SDS011;51556;50.002;22.014;2023-12-29T10:02:02;25.50;;;12.70;;
65009;SDS011;51556;50.002;22.014;2023-12-29T10:04:29;19.60;;;10.50;;
65009;SDS011;51556;50.002;22.014;2023-12-29T10:06:55;22.90;;;13.30;;
65009;SDS011;51556;50.002;22.014;2023-12-29T10:09:28;19.90;;;10.90;;
65009;SDS011;51556;50.002;22.014;2023-12-29T10:11:57;22.20;;;13.20;;
65009;SDS011;51556;50.002;22.014;2023-12-29T10:14:37;20.00;;;11.80;;
65009;SDS011;51556;50.002;22.014;2023-12-29T10:17:19;24.60;;;10.60;;
65009;SDS011;51556;50.002;22.014;2023-12-29T10:20:15;22.40;;;12.60;;
65009;SDS011;51556;50.002;22.014;2023-12-29T10:23:19;23.00;;;12.20;;
65009;SDS011;51556;50.002;22.014;2023-12-29T10:25:50;27.20;;;13.40;;
65009;SDS011;51556;50.002;22.014;2023-12-29T10:28:17;26.70;;;12.10;;
65009;SDS011;51556;50.002;22.014;2023-12-29T10:30:43;25.60;;;12.30;;
65009;SDS011;51556;50.002;22.014;2023-12-29T10:33:09;21.40;;;11.10;;
65009;SDS011;51556;50.002;22.014;2023-12-29T10:35:35;22.40;;;11.60;;
65009;SDS011;51556;50.002;22.014;2023-12-29T10:38:09;19.30;;;10.40;;
65009;SDS011;51556;50.002;22.014;2023-12-29T10:40:38;19.00;;;11.20;;
65009;SDS011;51556;50.002;22.014;2023-12-29T10:43:08;24.40;;;13.00;;
65009;SDS011;51556;50.002;22.014;2023-12-29T10:45:34;18.70;;;10.30;;
65009;SDS011;51556;50.002;22.014;2023-12-29T10:48:01;20.70;;;12.10;;
65009;SDS011;51556;50.002;22.014;2023-12-29T10:50:27;19.20;;;10.90;;
65009;SDS011;51556;50.002;22.014;2023-12-29T10:55:38;22.40;;;11.20;;
65009;SDS011;51556;50.002;22.014;2023-12-29T10:58:04;18.90;;;11.10;;
65009;SDS011;51556;50.002;22.014;2023-12-29T11:00:30;21.80;;;11.00;;
65009;SDS011;51556;50.002;22.014;2023-12-29T11:02:57;22.30;;;11.30;;
65009;SDS011;51556;50.002;22.014;2023-12-29T11:05:26;18.50;;;9.30;;
65009;SDS011;51556;50.002;22.014;2023-12-29T11:07:52;22.50;;;12.40;;
65009;SDS011;51556;50.002;22.014;2023-12-29T11:10:20;17.50;;;10.70;;
65009;SDS011;51556;50.002;22.014;2023-12-29T11:12:47;18.80;;;10.50;;
65009;SDS011;51556;50.002;22.014;2023-12-29T11:15:13;15.90;;;9.50;;
65009;SDS011;51556;50.002;22.014;2023-12-29T11:17:41;20.80;;;12.20;;
65009;SDS011;51556;50.002;22.014;2023-12-29T11:20:17;17.60;;;10.20;;
65009;SDS011;51556;50.002;22.014;2023-12-29T11:22:45;18.20;;;9.80;;
65009;SDS011;51556;50.002;22.014;2023-12-29T11:25:11;20.60;;;11.30;;
65009;SDS011;51556;50.002;22.014;2023-12-29T11:27:37;19.80;;;11.40;;
65009;SDS011;51556;50.002;22.014;2023-12-29T11:30:03;20.80;;;11.70;;
65009;SDS011;51556;50.002;22.014;2023-12-29T11:32:32;16.90;;;9.40;;
65009;SDS011;51556;50.002;22.014;2023-12-29T11:35:10;17.80;;;9.70;;
65009;SDS011;51556;50.002;22.014;2023-12-29T11:40:21;18.20;;;10.50;;
65009;SDS011;51556;50.002;22.014;2023-12-29T11:42:53;18.80;;;10.80;;
65009;SDS011;51556;50.002;22.014;2023-12-29T11:45:28;18.30;;;10.60;;
65009;SDS011;51556;50.002;22.014;2023-12-29T11:47:59;19.90;;;10.90;;
65009;SDS011;51556;50.002;22.014;2023-12-29T11:50:28;19.20;;;10.80;;
65009;SDS011;51556;50.002;22.014;2023-12-29T11:52:55;20.80;;;11.20;;
65009;SDS011;51556;50.002;22.014;2023-12-29T11:55:21;19.00;;;10.30;;
65009;SDS011;51556;50.002;22.014;2023-12-29T11:57:46;20.80;;;11.50;;
65009;SDS011;51556;50.002;22.014;2023-12-29T12:00:12;19.90;;;11.50;;
65009;SDS011;51556;50.002;22.014;2023-12-29T12:02:38;19.60;;;10.70;;
65009;SDS011;51556;50.002;22.014;2023-12-29T12:05:04;19.70;;;11.50;;
65009;SDS011;51556;50.002;22.014;2023-12-29T12:12:59;19.50;;;10.80;;
65009;SDS011;51556;50.002;22.014;2023-12-29T12:17:57;17.60;;;11.00;;
65009;SDS011;51556;50.002;22.014;2023-12-29T12:20:24;19.20;;;11.80;;
65009;SDS011;51556;50.002;22.014;2023-12-29T12:22:56;17.50;;;10.40;;
65009;SDS011;51556;50.002;22.014;2023-12-29T12:25:29;18.10;;;10.90;;
65009;SDS011;51556;50.002;22.014;2023-12-29T12:27:59;17.90;;;9.20;;
65009;SDS011;51556;50.002;22.014;2023-12-29T12:30:27;20.90;;;11.10;;
65009;SDS011;51556;50.002;22.014;2023-12-29T12:32:58;20.50;;;11.30;;
65009;SDS011;51556;50.002;22.014;2023-12-29T12:35:24;19.80;;;11.70;;
65009;SDS011;51556;50.002;22.014;2023-12-29T12:40:37;18.90;;;10.40;;
65009;SDS011;51556;50.002;22.014;2023-12-29T12:43:03;19.50;;;9.80;;
65009;SDS011;51556;50.002;22.014;2023-12-29T12:45:29;17.50;;;10.30;;
65009;SDS011;51556;50.002;22.014;2023-12-29T12:48:43;15.40;;;9.40;;
65009;SDS011;51556;50.002;22.014;2023-12-29T12:50:52;16.60;;;10.70;;
65009;SDS011;51556;50.002;22.014;2023-12-29T12:53:21;19.40;;;10.80;;
65009;SDS011;51556;50.002;22.014;2023-12-29T12:55:48;16.70;;;10.20;;
65009;SDS011;51556;50.002;22.014;2023-12-29T12:58:15;17.50;;;10.10;;
65009;SDS011;51556;50.002;22.014;2023-12-29T13:00:46;17.60;;;10.20;;
65009;SDS011;51556;50.002;22.014;2023-12-29T13:03:12;19.30;;;10.40;;
65009;SDS011;51556;50.002;22.014;2023-12-29T13:05:39;17.70;;;10.50;;
65009;SDS011;51556;50.002;22.014;2023-12-29T13:08:05;20.90;;;11.70;;
65009;SDS011;51556;50.002;22.014;2023-12-29T13:10:31;21.00;;;11.40;;
65009;SDS011;51556;50.002;22.014;2023-12-29T13:12:57;20.30;;;11.70;;
65009;SDS011;51556;50.002;22.014;2023-12-29T13:15:23;20.00;;;11.20;;
65009;SDS011;51556;50.002;22.014;2023-12-29T13:17:54;17.50;;;11.00;;
65009;SDS011;51556;50.002;22.014;2023-12-29T13:20:20;20.00;;;12.20;;
65009;SDS011;51556;50.002;22.014;2023-12-29T13:22:47;23.80;;;14.50;;
65009;SDS011;51556;50.002;22.014;2023-12-29T13:25:18;24.50;;;12.80;;
65009;SDS011;51556;50.002;22.014;2023-12-29T13:27:50;20.50;;;12.10;;
65009;SDS011;51556;50.002;22.014;2023-12-29T13:30:16;23.60;;;13.20;;
65009;SDS011;51556;50.002;22.014;2023-12-29T13:32:44;22.90;;;12.40;;
65009;SDS011;51556;50.002;22.014;2023-12-29T13:35:16;22.40;;;13.10;;
65009;SDS011;51556;50.002;22.014;2023-12-29T13:38:02;26.20;;;14.10;;
65009;SDS011;51556;50.002;22.014;2023-12-29T13:43:20;23.50;;;13.90;;
65009;SDS011;51556;50.002;22.014;2023-12-29T13:45:46;22.40;;;10.90;;
65009;SDS011;51556;50.002;22.014;2023-12-29T13:48:13;21.30;;;12.80;;
65009;SDS011;51556;50.002;22.014;2023-12-29T13:50:39;23.40;;;13.00;;
65009;SDS011;51556;50.002;22.014;2023-12-29T13:53:09;23.30;;;13.10;;
65009;SDS011;51556;50.002;22.014;2023-12-29T13:55:41;25.50;;;13.70;;
65009;SDS011;51556;50.002;22.014;2023-12-29T13:58:10;20.00;;;11.50;;
65009;SDS011;51556;50.002;22.014;2023-12-29T14:00:41;20.90;;;11.90;;
65009;SDS011;51556;50.002;22.014;2023-12-29T14:06:09;19.20;;;11.30;;
65009;SDS011;51556;50.002;22.014;2023-12-29T14:08:39;22.10;;;12.10;;
65009;SDS011;51556;50.002;22.014;2023-12-29T14:11:09;22.30;;;12.60;;
65009;SDS011;51556;50.002;22.014;2023-12-29T14:13:40;23.40;;;13.00;;
65009;SDS011;51556;50.002;22.014;2023-12-29T14:16:09;27.90;;;12.70;;
65009;SDS011;51556;50.002;22.014;2023-12-29T14:26:26;21.50;;;12.00;;
65009;SDS011;51556;50.002;22.014;2023-12-29T14:29:07;20.70;;;11.90;;
65009;SDS011;51556;50.002;22.014;2023-12-29T14:31:35;24.80;;;12.20;;
65009;SDS011;51556;50.002;22.014;2023-12-29T14:34:02;26.10;;;13.90;;
65009;SDS011;51556;50.002;22.014;2023-12-29T14:36:31;28.30;;;14.60;;
65009;SDS011;51556;50.002;22.014;2023-12-29T14:38:58;26.80;;;13.10;;
65009;SDS011;51556;50.002;22.014;2023-12-29T14:41:24;22.40;;;12.60;;
65009;SDS011;51556;50.002;22.014;2023-12-29T14:43:50;23.80;;;12.00;;